Time;durP1;ratioP1;P1;durP2;ratioP2;P2;SDS_P1;SDS_P2;PMS_P1;PMS_P2;Temp;Humidity;BMP_temperature;BMP_pressure;BME280_temperature;BME280_humidity;BME280_pressure;Samples;Min_cycle;Max_cycle;Signal;HPM_P1;HPM_P2
2022/03/11 00:01:36;;;;;;;18.87;8.30;;;;;;;;;;5085874;28;20028;-75
2022/03/11 00:04:01;;;;;;;17.70;8.07;;;;;;;;;;5082619;28;20291;-74
2022/03/11 00:06:26;;;;;;;21.10;8.70;;;;;;;;;;5106360;28;20280;-73
2022/03/11 00:08:52;;;;;;;16.70;8.57;;;;;;;;;;5098334;28;20287;-74
2022/03/11 00:11:17;;;;;;;19.40;8.87;;;;;;;;;;5087243;28;20091;-74
2022/03/11 00:13:42;;;;;;;19.98;8.57;;;;;;;;;;5097466;28;21167;-74
2022/03/11 00:16:08;;;;;;;18.87;9.00;;;;;;;;;;5102935;28;20031;-75
2022/03/11 00:18:34;;;;;;;20.48;8.85;;;;;;;;;;5100375;28;20276;-75
2022/03/11 00:20:59;;;;;;;18.50;8.88;;;;;;;;;;5083909;28;20032;-74
2022/03/11 00:23:25;;;;;;;21.58;9.23;;;;;;;;;;5105514;28;20050;-74
2022/03/11 00:25:50;;;;;;;18.02;9.50;;;;;;;;;;5099911;28;20466;-75
2022/03/11 00:28:16;;;;;;;21.98;9.40;;;;;;;;;;5104454;28;20047;-74
2022/03/11 00:30:41;;;;;;;19.98;9.10;;;;;;;;;;5085774;28;20050;-72
2022/03/11 00:33:07;;;;;;;17.10;8.05;;;;;;;;;;5083111;28;20126;-75
2022/03/11 00:35:34;;;;;;;19.60;8.90;;;;;;;;;;5099229;28;20027;-74
2022/03/11 00:37:59;;;;;;;19.52;8.65;;;;;;;;;;5099052;28;20032;-73
2022/03/11 00:40:24;;;;;;;21.10;8.30;;;;;;;;;;5098373;28;20028;-74
2022/03/11 00:42:50;;;;;;;20.75;8.65;;;;;;;;;;5098889;28;20447;-73
2022/03/11 00:45:15;;;;;;;18.15;8.80;;;;;;;;;;5106252;28;20040;-73
2022/03/11 00:47:40;;;;;;;18.65;8.75;;;;;;;;;;5094593;28;20690;-75
2022/03/11 00:50:06;;;;;;;23.20;8.87;;;;;;;;;;5081378;28;20051;-73
2022/03/11 00:52:31;;;;;;;16.38;8.40;;;;;;;;;;5100401;28;20840;-74
2022/03/11 00:54:56;;;;;;;17.77;8.60;;;;;;;;;;5102349;28;20166;-74
2022/03/11 00:57:22;;;;;;;19.63;8.45;;;;;;;;;;5086846;28;20043;-73
2022/03/11 00:59:47;;;;;;;25.23;9.10;;;;;;;;;;5087356;28;20056;-73
2022/03/11 01:02:12;;;;;;;18.98;8.75;;;;;;;;;;5100465;28;20490;-75
2022/03/11 01:04:38;;;;;;;17.13;8.50;;;;;;;;;;5098979;28;20401;-74
2022/03/11 01:07:03;;;;;;;19.20;8.65;;;;;;;;;;5099167;28;20032;-75
2022/03/11 01:09:28;;;;;;;22.00;8.97;;;;;;;;;;5105443;28;20735;-73
2022/03/11 01:11:53;;;;;;;19.70;7.93;;;;;;;;;;5081551;28;20279;-74
2022/03/11 01:14:18;;;;;;;16.80;7.82;;;;;;;;;;5087101;28;20272;-72
2022/03/11 01:16:44;;;;;;;17.33;7.87;;;;;;;;;;5101125;28;20518;-74
2022/03/11 01:19:09;;;;;;;17.05;7.60;;;;;;;;;;5098245;28;20286;-73
2022/03/11 01:21:34;;;;;;;14.77;7.43;;;;;;;;;;5100066;28;20104;-75
2022/03/11 01:24:00;;;;;;;16.15;7.07;;;;;;;;;;5104893;28;20032;-75
2022/03/11 01:26:25;;;;;;;17.20;7.15;;;;;;;;;;5081829;28;20032;-75
2022/03/11 01:28:51;;;;;;;13.57;6.60;;;;;;;;;;5079703;28;20042;-74
2022/03/11 01:31:17;;;;;;;16.00;7.03;;;;;;;;;;5097784;28;20035;-73
2022/03/11 01:33:42;;;;;;;17.65;7.35;;;;;;;;;;5097971;28;20031;-74
2022/03/11 01:36:08;;;;;;;17.48;7.55;;;;;;;;;;5094751;28;20097;-74
2022/03/11 01:38:34;;;;;;;16.52;7.18;;;;;;;;;;5087092;28;20043;-74
2022/03/11 01:40:59;;;;;;;12.93;6.45;;;;;;;;;;5099337;28;20032;-75
2022/03/11 01:43:25;;;;;;;13.70;6.00;;;;;;;;;;5095473;28;20119;-74
2022/03/11 01:45:50;;;;;;;14.05;6.07;;;;;;;;;;5101580;28;20094;-74
2022/03/11 01:48:15;;;;;;;13.45;6.35;;;;;;;;;;5096024;28;20039;-74
2022/03/11 01:50:41;;;;;;;11.80;5.00;;;;;;;;;;5094948;28;20115;-74
2022/03/11 01:53:08;;;;;;;12.40;5.65;;;;;;;;;;5099868;28;20585;-74
2022/03/11 01:55:33;;;;;;;12.52;5.45;;;;;;;;;;5101529;28;20044;-74
2022/03/11 01:57:59;;;;;;;15.25;6.10;;;;;;;;;;5105827;28;20059;-75
2022/03/11 02:00:24;;;;;;;14.97;6.40;;;;;;;;;;5099358;28;20077;-75
2022/03/11 02:02:49;;;;;;;15.95;6.50;;;;;;;;;;5096079;28;20348;-75
2022/03/11 02:05:17;;;;;;;13.13;6.10;;;;;;;;;;5103232;28;20044;-74
2022/03/11 02:07:43;;;;;;;11.40;6.38;;;;;;;;;;5103341;28;20264;-75
2022/03/11 02:10:08;;;;;;;13.60;5.85;;;;;;;;;;5087737;28;20070;-74
2022/03/11 02:12:37;;;;;;;15.77;6.40;;;;;;;;;;5080637;28;20055;-74
2022/03/11 02:15:04;;;;;;;17.38;6.90;;;;;;;;;;5104270;28;20035;-75
2022/03/11 02:17:29;;;;;;;16.52;7.55;;;;;;;;;;5080409;28;20122;-75
2022/03/11 02:19:54;;;;;;;15.50;6.95;;;;;;;;;;5104799;28;20398;-74
2022/03/11 02:22:21;;;;;;;15.88;6.93;;;;;;;;;;5088307;28;20044;-73
2022/03/11 02:24:47;;;;;;;18.13;7.30;;;;;;;;;;5106334;28;20024;-74
2022/03/11 02:27:12;;;;;;;19.17;7.53;;;;;;;;;;5102616;28;20026;-74
2022/03/11 02:29:38;;;;;;;16.93;7.90;;;;;;;;;;5098460;28;20272;-74
2022/03/11 02:32:03;;;;;;;20.42;8.32;;;;;;;;;;5087190;28;20325;-74
2022/03/11 02:34:28;;;;;;;19.58;8.38;;;;;;;;;;5090929;28;20032;-74
2022/03/11 02:36:54;;;;;;;17.53;7.87;;;;;;;;;;5118854;28;20322;-73
2022/03/11 02:39:19;;;;;;;18.42;8.30;;;;;;;;;;5112015;28;20264;-73
2022/03/11 02:41:47;;;;;;;15.20;7.13;;;;;;;;;;5119160;28;20032;-74
2022/03/11 02:44:12;;;;;;;18.00;8.43;;;;;;;;;;5119373;28;20061;-74
2022/03/11 02:46:38;;;;;;;18.02;7.85;;;;;;;-5.32;nan;101792.91;5117257;28;20040;-72
2022/03/11 02:49:03;;;;;;;21.17;8.48;;;;;;;-5.32;nan;101787.75;5098813;28;20081;-72
2022/03/11 02:51:29;;;;;;;18.52;7.80;;;;;;;-5.29;nan;101804.72;5111302;28;20055;-73
2022/03/11 02:53:54;;;;;;;19.48;8.27;;;;;;;-5.37;nan;101802.59;5077407;28;20032;-75
2022/03/11 02:56:21;;;;;;;20.60;8.82;;;;;;;-5.39;nan;101800.13;5102209;28;20020;-73
2022/03/11 02:58:46;;;;;;;20.63;8.55;;;;;;;-5.44;nan;101796.97;5105387;28;20067;-73
2022/03/11 03:01:12;;;;;;;20.15;8.57;;;;;;;-5.47;nan;101799.72;5094729;28;20027;-73
2022/03/11 03:03:37;;;;;;;17.55;8.18;;;;;;;-5.41;nan;101807.09;5092256;28;20216;-74
2022/03/11 03:06:04;;;;;;;21.80;8.68;;;;;;;-5.36;nan;101815.38;5107271;28;20470;-74
2022/03/11 03:08:29;;;;;;;20.85;8.93;;;;;;;-5.49;nan;101798.16;5104217;28;20115;-74
2022/03/11 03:10:55;;;;;;;19.85;7.97;;;;;;;-5.65;nan;101775.09;5096477;28;20135;-74
2022/03/11 03:13:20;;;;;;;19.60;8.27;;;;;;;-5.59;nan;101792.72;5101341;28;20031;-74
2022/03/11 03:15:46;;;;;;;18.73;8.63;;;;;;;-5.49;nan;101813.56;5091265;28;20035;-74
2022/03/11 03:18:11;;;;;;;24.00;8.95;;;;;;;-5.50;nan;101814.50;5097536;28;20032;-73
2022/03/11 03:20:37;;;;;;;18.13;8.27;;;;;;;-5.61;nan;101800.50;5086035;28;20051;-72
2022/03/11 03:23:02;;;;;;;19.20;8.20;;;;;;;-5.50;nan;101825.56;5101653;28;20570;-73
2022/03/11 03:25:27;;;;;;;18.45;9.35;;;;;;;-5.55;nan;101814.75;5103990;28;20543;-72
2022/03/11 03:27:53;;;;;;;19.40;8.57;;;;;;;-5.54;nan;101818.94;5088563;28;20070;-74
2022/03/11 03:30:19;;;;;;;18.73;8.32;;;;;;;-5.54;nan;101821.50;5103010;28;20482;-74
2022/03/11 03:32:44;;;;;;;22.50;8.43;;;;;;;-5.85;nan;101782.16;5083795;28;20493;-73
2022/03/11 03:35:13;;;;;;;19.55;9.45;;;;;;;-5.64;nan;101813.50;5095805;28;20462;-74
2022/03/11 03:37:39;;;;;;;24.92;9.60;;;;;;;-5.64;nan;101823.75;5096024;28;20028;-74
2022/03/11 03:40:06;;;;;;;18.38;8.27;;;;;;;-5.70;nan;101824.09;5079494;28;20046;-74
2022/03/11 03:42:32;;;;;;;17.02;7.72;;;;;;;-5.73;nan;101826.84;5092984;28;20039;-74
2022/03/11 03:44:57;;;;;;;16.65;8.20;;;;;;;-5.91;nan;101812.44;5098957;28;20089;-74
2022/03/11 03:47:23;;;;;;;18.52;8.10;;;;;;;-5.83;nan;101823.94;5107089;28;20507;-73
2022/03/11 03:49:48;;;;;;;16.90;8.65;;;;;;;-5.94;nan;101830.59;5105981;28;21890;-74
2022/03/11 03:52:14;;;;;;;21.98;10.20;;;;;;;-5.94;nan;101825.47;5078578;28;20036;-73
2022/03/11 03:54:40;;;;;;;20.85;9.55;;;;;;;-6.05;nan;101813.22;5084209;28;20465;-73
2022/03/11 03:57:06;;;;;;;20.48;8.75;;;;;;;-5.86;nan;101842.06;5089876;28;20055;-72
2022/03/11 03:59:31;;;;;;;28.85;9.50;;;;;;;-5.96;nan;101820.44;5104079;28;20040;-73
2022/03/11 04:01:57;;;;;;;21.45;9.45;;;;;;;-5.92;nan;101826.19;5100073;28;20283;-73
2022/03/11 04:04:22;;;;;;;21.90;9.10;;;;;;;-5.87;nan;101842.97;5097232;28;20118;-72
2022/03/11 04:06:48;;;;;;;24.58;9.38;;;;;;;-5.88;nan;101849.00;5096814;28;20523;-74
2022/03/11 04:09:13;;;;;;;24.65;9.15;;;;;;;-5.87;nan;101855.78;5099306;28;20126;-73
2022/03/11 04:11:40;;;;;;;28.02;9.73;;;;;;;-5.91;nan;101849.19;5077181;28;20039;-73
2022/03/11 04:14:06;;;;;;;23.10;9.73;;;;;;;-5.90;nan;101847.44;5100304;28;20038;-72
2022/03/11 04:16:32;;;;;;;22.67;8.82;;;;;;;-5.93;nan;101845.06;5081224;28;20042;-73
2022/03/11 04:18:57;;;;;;;22.50;8.13;;;;;;;-5.92;nan;101854.38;5097099;28;20028;-74
2022/03/11 04:21:23;;;;;;;21.10;8.75;;;;;;;-6.02;nan;101836.13;5100698;28;20043;-72
2022/03/11 04:23:50;;;;;;;20.33;8.65;;;;;;;-6.02;nan;101847.22;5097527;28;20477;-73
2022/03/11 04:26:16;;;;;;;22.65;8.43;;;;;;;-5.96;nan;101858.91;5098281;28;20118;-73
2022/03/11 04:28:42;;;;;;;21.92;9.18;;;;;;;-5.92;nan;101860.34;5096644;28;20117;-74
2022/03/11 04:31:12;;;;;;;19.15;7.78;;;;;;;-5.92;nan;101860.34;5101664;28;20096;-74
2022/03/11 04:33:39;;;;;;;18.88;8.10;;;;;;;-6.03;nan;101840.44;5088963;28;20806;-73
2022/03/11 04:36:06;;;;;;;17.38;7.95;;;;;;;-5.85;nan;101868.53;5096072;28;20032;-73
2022/03/11 04:38:32;;;;;;;16.80;7.20;;;;;;;-6.10;nan;101838.28;5099232;28;20477;-73
2022/03/11 04:40:58;;;;;;;21.83;8.25;;;;;;;-5.97;nan;101851.28;5079023;28;20059;-74
2022/03/11 04:43:23;;;;;;;18.60;8.20;;;;;;;-5.97;nan;101853.84;5084247;28;20071;-74
2022/03/11 04:45:49;;;;;;;20.30;8.73;;;;;;;-6.03;nan;101852.44;5099894;28;20040;-73
2022/03/11 04:48:14;;;;;;;22.25;8.60;;;;;;;-6.00;nan;101854.84;5097860;28;20396;-74
2022/03/11 04:50:40;;;;;;;23.00;9.00;;;;;;;-5.90;nan;101876.47;5084000;28;20028;-73
2022/03/11 04:53:05;;;;;;;22.73;9.40;;;;;;;-6.00;nan;101886.44;5089690;28;20107;-73
2022/03/11 04:55:32;;;;;;;20.17;8.63;;;;;;;-5.97;nan;101879.50;5103744;28;20059;-74
2022/03/11 04:57:57;;;;;;;34.03;10.68;;;;;;;-6.08;nan;101867.22;5103379;28;20955;-76
2022/03/11 05:00:23;;;;;;;19.48;9.23;;;;;;;-6.09;nan;101863.00;5101999;28;20052;-72
2022/03/11 05:02:48;;;;;;;23.48;10.32;;;;;;;-6.01;nan;101879.66;5086781;28;20042;-74
2022/03/11 05:05:15;;;;;;;24.85;8.88;;;;;;;-6.10;nan;101857.06;5098561;28;20039;-74
2022/03/11 05:07:41;;;;;;;19.50;8.95;;;;;;;-6.18;nan;101858.38;5099403;28;20131;-74
2022/03/11 05:10:10;;;;;;;27.55;10.95;;;;;;;-6.16;nan;101870.19;5081253;28;20428;-73
2022/03/11 05:12:37;;;;;;;24.92;10.48;;;;;;;-6.23;nan;101859.41;5097664;28;20063;-74
2022/03/11 05:15:04;;;;;;;26.33;10.63;;;;;;;-6.03;nan;101894.28;5083289;28;20043;-72
2022/03/11 05:17:29;;;;;;;25.77;9.50;;;;;;;-6.10;nan;101881.88;5103236;28;20059;-72
2022/03/11 05:19:55;;;;;;;26.75;9.98;;;;;;;-6.10;nan;101884.44;5105484;28;20027;-71
2022/03/11 05:22:20;;;;;;;23.58;9.35;;;;;;;-6.06;nan;101891.88;5095380;28;20378;-70
2022/03/11 05:24:46;;;;;;;28.45;10.32;;;;;;;-5.99;nan;101894.94;5090244;28;20020;-70
2022/03/11 05:27:12;;;;;;;27.20;11.38;;;;;;;-6.05;nan;101879.91;5102827;28;20059;-70
2022/03/11 05:29:37;;;;;;;29.98;11.57;;;;;;;-6.23;nan;101851.72;5092022;28;20036;-71
2022/03/11 05:32:03;;;;;;;34.40;13.93;;;;;;;-5.95;nan;101893.88;5080930;28;20058;-71
2022/03/11 05:34:29;;;;;;;28.60;12.82;;;;;;;-5.97;nan;101893.13;5105962;28;20031;-70
2022/03/11 05:36:54;;;;;;;28.27;12.38;;;;;;;-5.96;nan;101887.13;5087713;28;20050;-70
2022/03/11 05:39:20;;;;;;;37.65;14.13;;;;;;;-5.83;nan;101900.06;5113130;28;20031;-70
2022/03/11 05:41:49;;;;;;;36.67;13.68;;;;;;;-5.91;nan;101885.09;5100166;28;20515;-71
2022/03/11 05:44:18;;;;;;;51.00;15.48;;;;;;;-5.68;nan;101903.56;5098760;28;20051;-71
2022/03/11 05:46:45;;;;;;;41.17;14.45;;;;;;;-5.62;nan;101905.81;5100503;28;20039;-70
2022/03/11 05:49:12;;;;;;;31.00;11.27;;;;;;;-5.54;nan;101915.66;5101184;28;20434;-69
2022/03/11 05:51:37;;;;;;;29.73;11.23;;;;;;;-5.50;nan;101909.44;5095058;28;20395;-67
2022/03/11 05:54:04;;;;;;;33.90;8.98;;;;;;;-5.43;nan;101908.22;5092940;28;20126;-68
2022/03/11 05:56:29;;;;;;;28.55;10.07;;;;;;;-5.33;nan;101914.47;5093644;28;20042;-68
2022/03/11 05:58:55;;;;;;;21.80;8.73;;;;;;;-5.37;nan;101889.88;5094994;28;20044;-69
2022/03/11 06:01:20;;;;;;;16.95;7.95;;;;;;;-5.11;nan;101916.69;5095760;28;20040;-69
2022/03/11 06:03:46;;;;;;;17.23;7.28;;;;;;;-5.11;nan;101910.72;5101543;28;20032;-72
2022/03/11 06:06:13;;;;;;;14.70;6.63;;;;;;;-4.96;nan;101909.84;5101296;28;21147;-72
2022/03/11 06:08:38;;;;;;;12.27;5.75;;;;;;;-4.81;nan;101916.72;5100369;28;20035;-72
2022/03/11 06:11:04;;;;;;;15.63;5.82;;;;;;;-4.70;nan;101922.03;5097431;28;20032;-70
2022/03/11 06:13:29;;;;;;;15.00;5.13;;;;;;;-4.62;nan;101918.19;5099129;28;20585;-70
2022/03/11 06:15:55;;;;;;;13.32;5.38;;;;;;;-4.52;nan;101907.31;5089940;28;20031;-70
2022/03/11 06:18:20;;;;;;;18.25;5.90;;;;;;;-4.30;nan;101927.44;5103842;28;20389;-69
2022/03/11 06:20:46;;;;;;;12.57;5.35;;;;;;;-4.16;nan;101929.22;5099917;28;20035;-71
2022/03/11 06:23:11;;;;;;;10.40;5.30;;;;;;;-4.03;nan;101929.28;5095717;28;20119;-69
2022/03/11 06:25:37;;;;;;;13.63;4.90;;;;;;;-4.00;nan;101915.41;5085129;28;20024;-69
2022/03/11 06:28:11;;;;;;;11.55;5.57;;;;;;;-3.84;nan;101934.16;5096778;28;20044;-70
2022/03/11 06:30:37;;;;;;;10.65;4.55;;;;;;;-3.66;nan;101940.75;5086734;28;20028;-70
2022/03/11 06:33:02;;;;;;;10.43;4.03;;;;;;;-3.56;nan;101943.59;5102549;28;20036;-69
2022/03/11 06:35:28;;;;;;;10.93;5.13;;;;;;;-3.44;nan;101955.72;5090187;28;20020;-69
2022/03/11 06:37:54;;;;;;;10.85;5.15;;;;;;;-3.42;nan;101943.56;5099282;28;20508;-71
2022/03/11 06:40:20;;;;;;;15.65;5.13;;;;;;;-3.26;nan;101955.47;5094807;28;20028;-74
2022/03/11 06:42:47;;;;;;;9.20;4.13;;;;;;;-3.28;nan;101934.97;5084655;28;20036;-75
2022/03/11 06:45:14;;;;;;;11.50;4.57;;;;;;;-3.16;nan;101948.00;5102427;28;20482;-74
2022/03/11 06:47:41;;;;;;;10.80;4.28;;;;;;;-3.01;nan;101965.06;5088036;28;20036;-74
2022/03/11 06:50:07;;;;;;;8.20;4.25;;;;;;;-3.00;nan;101959.81;5089625;28;20054;-73
2022/03/11 06:52:33;;;;;;;13.15;4.82;;;;;;;-3.00;nan;101948.66;5104292;28;20028;-72
2022/03/11 06:54:59;;;;;;;10.60;4.32;;;;;;;-2.87;nan;101954.72;5082591;28;20378;-72
2022/03/11 06:57:25;;;;;;;18.92;5.03;;;;;;;-2.81;nan;101956.06;5096244;28;20080;-71
2022/03/11 06:59:50;;;;;;;9.25;4.28;;;;;;;-2.65;nan;101968.78;5107391;28;20039;-72
2022/03/11 07:02:17;;;;;;;10.63;5.20;;;;;;;-2.70;nan;101951.03;5107007;28;20502;-71
2022/03/11 07:04:42;;;;;;;15.55;4.68;;;;;;;-2.49;nan;101979.75;5097318;28;20061;-72
2022/03/11 07:07:08;;;;;;;14.25;5.65;;;;;;;-2.42;nan;101981.00;5102808;28;20036;-71
2022/03/11 07:09:34;;;;;;;14.90;4.50;;;;;;;-2.44;nan;101975.13;5104630;28;20074;-72
2022/03/11 07:12:02;;;;;;;18.13;6.03;;;;;;;-2.33;nan;101987.28;5096409;28;20040;-73
2022/03/11 07:14:29;;;;;;;11.50;4.70;;;;;;;-2.27;nan;101980.91;5105794;28;20062;-73
2022/03/11 07:16:56;;;;;;;9.20;4.68;;;;;;;-2.22;nan;101991.75;5090673;28;20043;-73
2022/03/11 07:19:22;;;;;;;11.60;5.18;;;;;;;-2.14;nan;101992.88;5086806;28;20103;-73
2022/03/11 07:21:47;;;;;;;9.55;4.60;;;;;;;-2.31;nan;101940.75;5089339;28;20473;-74
2022/03/11 07:24:13;;;;;;;14.25;5.28;;;;;;;-1.96;nan;101990.81;5095081;28;20036;-71
2022/03/11 07:26:38;;;;;;;12.15;5.28;;;;;;;-1.99;nan;101970.41;5097199;28;20039;-70
2022/03/11 07:29:04;;;;;;;17.55;5.97;;;;;;;-1.94;nan;101977.78;5106515;28;20028;-70
2022/03/11 07:31:30;;;;;;;10.68;4.60;;;;;;;-1.84;nan;101984.00;5106659;28;20038;-70
2022/03/11 07:33:56;;;;;;;11.82;5.07;;;;;;;-1.72;nan;102001.25;5107042;28;20413;-70
2022/03/11 07:36:21;;;;;;;8.73;4.78;;;;;;;-1.69;nan;101989.88;5108816;28;20058;-70
2022/03/11 07:38:48;;;;;;;9.85;4.35;;;;;;;-1.57;nan;101990.78;5108921;28;20140;-70
2022/03/11 07:41:14;;;;;;;13.35;5.13;;;;;;;-1.47;nan;101999.53;5105504;28;20059;-71
2022/03/11 07:43:42;;;;;;;14.73;5.15;;;;;;;-1.56;nan;101964.84;5081007;28;20039;-71
2022/03/11 07:46:08;;;;;;;13.00;5.00;;;;;;;-1.51;nan;101972.25;5094671;28;20051;-71
2022/03/11 07:48:34;;;;;;;15.68;7.20;;;;;;;-1.29;nan;101976.78;5106206;28;20031;-70
2022/03/11 07:50:59;;;;;;;17.98;7.25;;;;;;;-1.10;nan;101987.44;5094275;28;20524;-71
2022/03/11 07:53:24;;;;;;;18.48;7.70;;;;;;;-1.07;nan;101971.72;5079552;28;20124;-71
2022/03/11 07:55:50;;;;;;;37.28;13.20;;;;;;;-0.89;nan;101979.06;5104897;28;20102;-70
2022/03/11 07:58:15;;;;;;;38.75;14.68;;;;;;;-0.79;nan;101982.66;5112046;28;20066;-71
2022/03/11 08:00:42;;;;;;;21.35;8.52;;;;;;;-0.83;nan;101975.22;5086422;28;20039;-71
2022/03/11 08:03:08;;;;;;;16.13;5.22;;;;;;;-0.84;nan;101963.22;5112032;28;20058;-71
2022/03/11 08:05:33;;;;;;;12.55;5.03;;;;;;;-0.72;nan;101986.44;5105396;28;20477;-71
2022/03/11 08:07:58;;;;;;;8.63;4.70;;;;;;;-0.77;nan;101977.34;5094570;28;20043;-71
2022/03/11 08:10:24;;;;;;;10.43;4.88;;;;;;;-0.66;nan;101985.16;5105085;28;20418;-70
2022/03/11 08:12:50;;;;;;;11.07;5.18;;;;;;;-0.75;nan;101968.56;5097212;28;20477;-74
2022/03/11 08:15:17;;;;;;;9.07;4.90;;;;;;;-0.54;nan;101996.38;5097676;28;20031;-70
2022/03/11 08:17:43;;;;;;;10.82;5.30;;;;;;;-0.44;nan;101995.56;5108607;28;20031;-72
2022/03/11 08:20:10;;;;;;;14.07;6.05;;;;;;;-0.41;nan;101991.94;5099748;28;20059;-72
2022/03/11 08:22:36;;;;;;;9.93;5.13;;;;;;;-0.38;nan;101978.78;5088685;28;20039;-72
2022/03/11 08:25:01;;;;;;;10.48;4.70;;;;;;;-0.35;nan;101972.56;5107242;28;20496;-71
2022/03/11 08:27:27;;;;;;;9.40;4.40;;;;;;;-0.17;nan;101988.47;5105645;28;20107;-71
2022/03/11 08:29:53;;;;;;;12.57;4.93;;;;;;;-0.18;nan;101984.25;5110850;28;20430;-70
2022/03/11 08:32:18;;;;;;;10.15;4.95;;;;;;;-0.11;nan;101991.41;5103547;28;20472;-70
2022/03/11 08:34:43;;;;;;;11.23;5.00;;;;;;;-0.05;nan;101995.31;5083045;28;20104;-71
2022/03/11 08:37:09;;;;;;;11.32;4.90;;;;;;;-0.11;nan;101975.06;5092417;28;20055;-70
2022/03/11 08:39:34;;;;;;;9.27;4.78;;;;;;;0.11;nan;101985.44;5104590;28;20043;-71
2022/03/11 08:42:00;;;;;;;11.23;5.18;;;;;;;0.20;nan;101976.97;5086049;28;20059;-70
2022/03/11 08:44:25;;;;;;;10.43;4.93;;;;;;;0.30;nan;101973.66;5109234;28;20028;-70
2022/03/11 08:46:50;;;;;;;10.80;5.20;;;;;;;0.46;nan;101987.09;5110319;28;20043;-69
2022/03/11 08:49:16;;;;;;;10.07;4.93;;;;;;;0.45;nan;101979.41;5110467;28;20036;-73
2022/03/11 08:51:43;;;;;;;12.35;4.85;;;;;;;0.56;nan;101977.63;5105783;28;20473;-73
2022/03/11 08:54:09;;;;;;;10.70;4.35;;;;;;;0.61;nan;101974.69;5110038;28;20044;-72
2022/03/11 08:56:34;;;;;;;10.52;5.47;;;;;;;0.69;nan;101981.84;5107228;28;20024;-73
2022/03/11 08:59:00;;;;;;;8.20;4.30;;;;;;;0.75;nan;101968.41;5106202;28;20090;-74
2022/03/11 09:01:25;;;;;;;9.68;4.35;;;;;;;0.78;nan;101962.97;5088088;28;20110;-73
2022/03/11 09:03:51;;;;;;;9.02;4.63;;;;;;;0.73;nan;101962.53;5110142;28;20032;-73
2022/03/11 09:06:16;;;;;;;9.25;4.68;;;;;;;0.82;nan;101954.84;5104010;28;20081;-73
2022/03/11 09:08:41;;;;;;;10.32;4.78;;;;;;;0.94;nan;101953.03;5097141;28;20081;-73
2022/03/11 09:11:07;;;;;;;7.63;4.18;;;;;;;0.96;nan;101947.69;5087119;28;20071;-73
2022/03/11 09:13:32;;;;;;;7.05;4.10;;;;;;;0.94;nan;101940.06;5090967;28;20031;-74
2022/03/11 09:15:58;;;;;;;12.63;5.75;;;;;;;1.02;nan;101949.81;5072068;28;20038;-70
2022/03/11 09:18:23;;;;;;;10.57;5.22;;;;;;;1.12;nan;101960.28;5081558;28;20039;-70
2022/03/11 09:20:49;;;;;;;9.98;4.30;;;;;;;1.22;nan;101967.19;5087429;28;20035;-70
2022/03/11 09:23:14;;;;;;;8.15;4.45;;;;;;;1.20;nan;101956.13;5098822;28;20027;-70
2022/03/11 09:25:40;;;;;;;9.20;4.13;;;;;;;1.19;nan;101949.25;5097766;28;20086;-70
2022/03/11 09:28:06;;;;;;;9.93;4.38;;;;;;;1.28;nan;101960.69;5105182;28;20509;-72
2022/03/11 09:30:32;;;;;;;10.57;4.82;;;;;;;1.27;nan;101943.47;5099831;28;20055;-69
2022/03/11 09:32:57;;;;;;;11.50;4.80;;;;;;;1.18;nan;101929.47;5092716;28;20111;-73
2022/03/11 09:35:23;;;;;;;7.88;4.32;;;;;;;1.37;nan;101962.53;5106345;28;20119;-70
2022/03/11 09:37:48;;;;;;;8.32;4.32;;;;;;;1.32;nan;101956.88;5086399;28;20385;-69
2022/03/11 09:40:15;;;;;;;11.52;4.55;;;;;;;1.36;nan;101955.66;5108586;28;20039;-71
2022/03/11 09:42:42;;;;;;;7.35;3.90;;;;;;;1.46;nan;101947.94;5101048;28;20032;-70
2022/03/11 09:45:07;;;;;;;8.63;4.55;;;;;;;1.59;nan;101947.78;5104234;28;20048;-70
2022/03/11 09:47:34;;;;;;;12.35;4.57;;;;;;;1.54;nan;101950.75;5101670;28;20036;-73
2022/03/11 09:49:59;;;;;;;8.95;4.60;;;;;;;1.60;nan;101949.41;5101044;28;20474;-74
2022/03/11 09:52:25;;;;;;;9.20;4.65;;;;;;;1.57;nan;101944.47;5072042;28;20040;-69
2022/03/11 09:54:50;;;;;;;8.57;4.45;;;;;;;1.65;nan;101960.22;5085417;28;20571;-72
2022/03/11 09:57:23;;;;;;;8.32;4.75;;;;;;;1.69;nan;101954.66;5089719;28;20458;-73
2022/03/11 09:59:49;;;;;;;13.25;5.55;;;;;;;1.51;nan;101903.44;5075688;28;20051;-73
2022/03/11 10:02:15;;;;;;;11.80;5.93;;;;;;;1.85;nan;101948.19;5109973;28;20502;-71
2022/03/11 10:04:52;;;;;;;7.95;4.22;;;;;;;1.87;nan;101943.69;5107831;28;20091;-71
2022/03/11 10:07:31;;;;;;;10.05;5.00;;;;;;;1.87;nan;101944.50;5100919;28;20035;-71
2022/03/11 10:10:10;;;;;;;7.93;4.32;;;;;;;1.89;nan;101937.41;5098492;28;20111;-73
2022/03/11 10:12:42;;;;;;;8.20;4.47;;;;;;;1.97;nan;101949.75;5078152;28;20100;-72
2022/03/11 10:15:08;;;;;;;8.55;4.10;;;;;;;1.97;nan;101943.72;5107146;28;20051;-71
2022/03/11 10:17:42;;;;;;;7.38;4.32;;;;;;;1.86;nan;101944.63;5107319;28;20059;-70
2022/03/11 10:20:10;;;;;;;6.25;3.50;;;;;;;1.81;nan;101939.81;5083795;28;20059;-69
2022/03/11 10:22:36;;;;;;;6.22;3.67;;;;;;;1.93;nan;101940.56;5102542;28;20521;-69
2022/03/11 10:25:16;;;;;;;7.57;3.55;;;;;;;2.06;nan;101943.78;5099751;28;20469;-69
2022/03/11 10:28:03;;;;;;;8.32;3.78;;;;;;;2.07;nan;101942.81;5100545;28;20059;-70
2022/03/11 10:30:33;;;;;;;7.18;3.63;;;;;;;2.07;nan;101942.00;5086238;28;20036;-69
2022/03/11 10:33:02;;;;;;;6.13;3.40;;;;;;;1.89;nan;101923.56;5102641;28;20031;-69
2022/03/11 10:35:37;;;;;;;8.10;4.63;;;;;;;2.00;nan;101939.09;5076856;28;20100;-70
2022/03/11 10:38:10;;;;;;;6.78;3.50;;;;;;;2.04;nan;101940.47;5104977;28;20096;-69
2022/03/11 10:40:41;;;;;;;6.53;3.75;;;;;;;2.00;nan;101917.47;5089162;28;20133;-71
2022/03/11 10:43:16;;;;;;;8.13;3.80;;;;;;;2.08;nan;101933.22;5084899;28;20031;-71
2022/03/11 10:45:54;;;;;;;8.65;4.45;;;;;;;2.06;nan;101929.94;5075915;28;20354;-71
2022/03/11 10:48:44;;;;;;;7.50;3.97;;;;;;;2.04;nan;101937.06;5074768;28;20593;-69
2022/03/11 10:51:20;;;;;;;8.93;4.38;;;;;;;2.21;nan;101928.63;5106040;28;20028;-69
2022/03/11 10:53:49;;;;;;;7.07;4.00;;;;;;;2.04;nan;101885.09;5072955;28;20394;-74
2022/03/11 10:56:24;;;;;;;6.80;3.65;;;;;;;2.24;nan;101910.16;5080863;28;20036;-70
2022/03/11 10:58:49;;;;;;;7.40;3.60;;;;;;;2.26;nan;101910.88;5078693;28;20043;-70
2022/03/11 11:01:33;;;;;;;9.18;4.22;;;;;;;2.38;nan;101915.97;5086654;28;20122;-74
2022/03/11 11:04:00;;;;;;;9.38;3.95;;;;;;;2.33;nan;101895.56;5100254;28;20476;-73
2022/03/11 11:06:26;;;;;;;8.98;4.80;;;;;;;2.42;nan;101906.91;5092651;28;20043;-74
2022/03/11 11:08:52;;;;;;;7.40;3.92;;;;;;;2.42;nan;101899.97;5108100;28;20024;-73
2022/03/11 11:11:18;;;;;;;9.63;4.20;;;;;;;2.24;nan;101857.38;5107578;28;20460;-68
2022/03/11 11:13:44;;;;;;;11.13;4.50;;;;;;;2.58;nan;101880.41;5107128;28;20028;-70
2022/03/11 11:16:10;;;;;;;5.80;3.25;;;;;;;2.65;nan;101895.31;5109744;28;20035;-69
2022/03/11 11:18:38;;;;;;;6.78;3.63;;;;;;;2.61;nan;101896.56;5103608;28;20032;-71
2022/03/11 11:21:08;;;;;;;6.53;3.83;;;;;;;2.53;nan;101883.41;5073906;28;20031;-72
2022/03/11 11:23:34;;;;;;;10.55;4.55;;;;;;;2.66;nan;101890.94;5103717;28;20047;-72
2022/03/11 11:25:59;;;;;;;7.65;4.28;;;;;;;2.71;nan;101889.59;5105008;28;20039;-71
2022/03/11 11:28:26;;;;;;;11.02;4.90;;;;;;;2.65;nan;101889.31;5093644;28;20044;-69
2022/03/11 11:30:54;;;;;;;7.38;4.28;;;;;;;2.50;nan;101884.50;5080557;28;20032;-69
2022/03/11 11:33:20;;;;;;;10.77;4.50;;;;;;;2.58;nan;101889.03;5105312;28;20035;-71
2022/03/11 11:35:45;;;;;;;7.40;4.25;;;;;;;2.59;nan;101882.06;5099949;28;20120;-69
2022/03/11 11:38:33;;;;;;;8.48;4.65;;;;;;;2.69;nan;101885.47;5099797;28;20123;-71
2022/03/11 11:41:00;;;;;;;9.13;4.13;;;;;;;2.70;nan;101861.91;5109579;28;20034;-70
2022/03/11 11:43:31;;;;;;;7.63;4.03;;;;;;;2.93;nan;101890.28;5096542;28;20042;-72
2022/03/11 11:46:04;;;;;;;6.57;3.72;;;;;;;2.93;nan;101883.28;5087693;28;20656;-70
2022/03/11 11:48:32;;;;;;;7.47;3.95;;;;;;;2.97;nan;101878.63;5098225;28;20036;-71
2022/03/11 11:51:06;;;;;;;6.05;3.72;;;;;;;3.05;nan;101875.34;5105889;28;20055;-71
2022/03/11 11:53:42;;;;;;;8.95;3.80;;;;;;;3.16;nan;101862.16;5104760;28;20036;-71
2022/03/11 11:56:32;;;;;;;8.95;4.28;;;;;;;3.14;nan;101874.50;5112914;28;20053;-71
2022/03/11 11:59:07;;;;;;;6.97;3.97;;;;;;;3.02;nan;101865.19;5103816;28;20048;-71
2022/03/11 12:01:46;;;;;;;7.82;3.65;;;;;;;3.13;nan;101862.44;5092184;28;20032;-73
2022/03/11 12:04:29;;;;;;;8.77;4.47;;;;;;;3.09;nan;101843.69;5099586;28;20040;-71
2022/03/11 12:06:59;;;;;;;11.98;4.65;;;;;;;3.17;nan;101851.59;5101051;28;20027;-72
2022/03/11 12:12:30;;;;;;;11.48;4.32;;;;;;;3.28;nan;101861.06;5110817;28;20130;-72